createdAt,value
2019-02-25T00:00:59.085Z,0
2019-02-25T00:01:59.011Z,0
2019-02-25T00:02:58.991Z,0
2019-02-25T00:03:58.725Z,0
2019-02-25T00:04:58.701Z,0
2019-02-25T00:05:59.182Z,0
2019-02-25T00:06:58.909Z,0
2019-02-25T00:07:58.924Z,0
2019-02-25T00:08:58.956Z,0
2019-02-25T00:09:58.865Z,0
2019-02-25T00:10:58.847Z,0
2019-02-25T00:11:58.822Z,0
2019-02-25T00:12:58.846Z,0
2019-02-25T00:13:58.774Z,0
2019-02-25T00:14:58.770Z,0
2019-02-25T00:15:58.509Z,0
2019-02-25T00:16:58.961Z,0
2019-02-25T00:17:58.687Z,0
2019-02-25T00:18:58.679Z,0
2019-02-25T00:19:58.947Z,0
2019-02-25T00:20:58.447Z,0
2019-02-25T00:21:58.861Z,0
2019-02-25T00:22:58.883Z,0
2019-02-25T00:23:58.830Z,0
2019-02-25T00:24:58.565Z,0
2019-02-25T00:25:58.530Z,0
2019-02-25T00:26:58.259Z,0
2019-02-25T00:27:58.322Z,0
2019-02-25T00:28:58.238Z,0
2019-02-25T00:29:58.455Z,0
2019-02-25T00:30:58.447Z,0
2019-02-25T00:31:58.410Z,0
2019-02-25T00:32:58.407Z,0
2019-02-25T00:33:58.381Z,0
2019-02-25T00:34:58.613Z,0
2019-02-25T00:35:58.641Z,0
2019-02-25T00:36:58.374Z,0
2019-02-25T00:37:58.040Z,0
2019-02-25T00:38:58.285Z,0
2019-02-25T00:39:58.064Z,0
2019-02-25T00:40:58.240Z,0
2019-02-25T00:41:58.070Z,0
2019-02-25T00:42:58.193Z,0
2019-02-25T00:43:58.422Z,0
2019-02-25T00:44:58.406Z,0
2019-02-25T00:45:58.130Z,0
2019-02-25T00:46:58.414Z,0
2019-02-25T00:47:58.388Z,0
2019-02-25T00:48:57.818Z,0
2019-02-25T00:49:58.069Z,0
2019-02-25T00:50:58.349Z,0
2019-02-25T00:51:58.325Z,0
2019-02-25T00:52:57.744Z,0
2019-02-25T00:53:57.974Z,0
2019-02-25T00:54:57.994Z,0
2019-02-25T00:55:57.942Z,0
2019-02-25T00:56:58.064Z,0
2019-02-25T00:57:58.149Z,0
2019-02-25T00:58:57.888Z,0
2019-02-25T00:59:57.594Z,0
2019-02-25T01:00:57.847Z,0
2019-02-25T01:01:57.849Z,0
2019-02-25T01:02:57.541Z,0
2019-02-25T01:03:58.026Z,0
2019-02-25T01:04:58.014Z,0
2019-02-25T01:05:57.754Z,0
2019-02-25T01:06:57.966Z,0
2019-02-25T01:07:57.441Z,0
2019-02-25T01:08:57.681Z,0
2019-02-25T01:09:57.676Z,0
2019-02-25T01:10:57.638Z,0
2019-02-25T01:11:57.629Z,0
2019-02-25T01:12:57.607Z,0
2019-02-25T01:13:57.583Z,0
2019-02-25T01:14:57.826Z,0
2019-02-25T01:15:57.541Z,0
2019-02-25T01:16:57.776Z,0
2019-02-25T01:17:57.254Z,0
2019-02-25T01:18:57.514Z,0
2019-02-25T01:19:57.583Z,0
2019-02-25T01:20:57.443Z,0
2019-02-25T01:21:57.161Z,0
2019-02-25T01:22:57.663Z,0
2019-02-25T01:23:57.432Z,0
2019-02-25T01:24:57.151Z,0
2019-02-25T01:25:57.598Z,0
2019-02-25T01:26:57.328Z,0
2019-02-25T01:27:57.306Z,0
2019-02-25T01:28:57.029Z,0
2019-02-25T01:29:57.510Z,0
2019-02-25T01:30:57.009Z,0
2019-02-25T01:31:57.223Z,0
2019-02-25T01:32:57.531Z,0
2019-02-25T01:33:57.477Z,0
2019-02-25T01:34:56.943Z,0
2019-02-25T01:35:57.466Z,0
2019-02-25T01:36:57.379Z,0
2019-02-25T01:37:56.858Z,0
2019-02-25T01:38:57.098Z,0
2019-02-25T01:39:56.806Z,0
2019-02-25T01:40:57.043Z,0
2019-02-25T01:41:56.810Z,0
2019-02-25T01:42:57.013Z,0
2019-02-25T01:43:56.990Z,0
2019-02-25T01:44:56.962Z,0
2019-02-25T01:45:56.968Z,0
2019-02-25T01:46:57.131Z,0
2019-02-25T01:47:56.995Z,0
2019-02-25T01:48:56.883Z,0
2019-02-25T01:49:57.140Z,0
2019-02-25T01:50:56.587Z,0
2019-02-25T01:51:56.623Z,0
2019-02-25T01:52:56.610Z,0
2019-02-25T01:53:56.825Z,0
2019-02-25T01:54:57.018Z,0
2019-02-25T01:55:56.749Z,0
2019-02-25T01:56:56.748Z,0
2019-02-25T01:57:56.962Z,0
2019-02-25T01:58:56.701Z,0
2019-02-25T01:59:56.665Z,0
2019-02-25T02:00:56.151Z,0
2019-02-25T02:01:56.622Z,0
2019-02-25T02:02:56.611Z,0
2019-02-25T02:03:56.852Z,0
2019-02-25T02:04:56.823Z,0
2019-02-25T02:05:56.558Z,0
2019-02-25T02:06:56.777Z,0
2019-02-25T02:07:56.285Z,0
2019-02-25T02:08:56.735Z,0
2019-02-25T02:09:56.474Z,0
2019-02-25T02:10:56.219Z,0
2019-02-25T02:11:56.164Z,0
2019-02-25T02:12:56.154Z,0
2019-02-25T02:13:56.399Z,0
2019-02-25T02:14:56.625Z,0
2019-02-25T02:15:56.336Z,0
2019-02-25T02:16:56.606Z,0
2019-02-25T02:17:56.599Z,0
2019-02-25T02:18:56.022Z,0
2019-02-25T02:19:56.254Z,0
2019-02-25T02:20:55.998Z,0
2019-02-25T02:21:56.254Z,0
2019-02-25T02:22:56.459Z,0
2019-02-25T02:23:56.422Z,0
2019-02-25T02:24:56.166Z,0
2019-02-25T02:25:56.420Z,0
2019-02-25T02:26:55.863Z,0
2019-02-25T02:27:56.116Z,0
2019-02-25T02:28:56.331Z,0
2019-02-25T02:29:55.799Z,0
2019-02-25T02:30:56.048Z,0
2019-02-25T02:31:56.042Z,0
2019-02-25T02:32:56.023Z,0
2019-02-25T02:33:55.974Z,0
2019-02-25T02:34:55.963Z,0
2019-02-25T02:35:56.195Z,0
2019-02-25T02:36:55.682Z,0
2019-02-25T02:37:55.910Z,0
2019-02-25T02:38:56.177Z,0
2019-02-25T02:39:56.405Z,0
2019-02-25T02:40:55.582Z,0
2019-02-25T02:41:55.830Z,0
2019-02-25T02:42:56.060Z,0
2019-02-25T02:43:55.777Z,0
2019-02-25T02:44:56.022Z,0
2019-02-25T02:45:56.005Z,0
2019-02-25T02:46:55.461Z,0
2019-02-25T02:47:55.684Z,0
2019-02-25T02:48:55.710Z,0
2019-02-25T02:49:55.597Z,0
2019-02-25T02:50:55.434Z,0
2019-02-25T02:51:55.869Z,0
2019-02-25T02:52:55.595Z,0
2019-02-25T02:53:55.582Z,0
2019-02-25T02:54:55.551Z,0
2019-02-25T02:55:55.293Z,0
2019-02-25T02:56:55.258Z,0
2019-02-25T02:57:55.751Z,0
2019-02-25T02:58:55.718Z,0
2019-02-25T02:59:55.477Z,0
2019-02-25T03:00:55.439Z,0
2019-02-25T03:01:55.419Z,0
2019-02-25T03:02:55.405Z,0
2019-02-25T03:03:54.866Z,0
2019-02-25T03:04:55.595Z,0
2019-02-25T03:05:55.598Z,0
2019-02-25T03:06:55.306Z,0
2019-02-25T03:07:55.545Z,0
2019-02-25T03:08:55.284Z,0
2019-02-25T03:09:55.257Z,0
2019-02-25T03:10:55.482Z,0
2019-02-25T03:11:54.957Z,0
2019-02-25T03:12:55.207Z,0
2019-02-25T03:13:55.172Z,0
2019-02-25T03:14:55.141Z,0
2019-02-25T03:15:55.140Z,0
2019-02-25T03:16:55.384Z,0
2019-02-25T03:17:55.101Z,0
2019-02-25T03:18:55.071Z,0
2019-02-25T03:19:54.530Z,0
2019-02-25T03:20:55.281Z,0
2019-02-25T03:21:54.993Z,0
2019-02-25T03:22:54.975Z,0
2019-02-25T03:23:54.963Z,0
2019-02-25T03:24:55.536Z,0
2019-02-25T03:25:55.189Z,0
2019-02-25T03:26:54.898Z,0
2019-02-25T03:27:55.222Z,0
2019-02-25T03:28:54.618Z,0
2019-02-25T03:29:54.571Z,0
2019-02-25T03:30:54.902Z,0
2019-02-25T03:31:54.827Z,0
2019-02-25T03:32:54.902Z,0
2019-02-25T03:33:55.224Z,0
2019-02-25T03:34:54.479Z,0
2019-02-25T03:35:54.463Z,0
2019-02-25T03:36:54.447Z,0
2019-02-25T03:37:54.741Z,0
2019-02-25T03:38:54.657Z,0
2019-02-25T03:39:54.880Z,0
2019-02-25T03:40:54.880Z,0
2019-02-25T03:41:54.579Z,0
2019-02-25T03:42:54.646Z,0
2019-02-25T03:43:54.888Z,0
2019-02-25T03:44:54.270Z,0
2019-02-25T03:45:54.500Z,0
2019-02-25T03:46:54.892Z,0
2019-02-25T03:47:54.712Z,0
2019-02-25T03:48:54.186Z,0
2019-02-25T03:49:54.721Z,0
2019-02-25T03:50:54.666Z,0
2019-02-25T03:51:54.387Z,0
2019-02-25T03:52:54.683Z,0
2019-02-25T03:53:54.102Z,0
2019-02-25T03:54:54.577Z,0
2019-02-25T03:55:54.576Z,0
2019-02-25T03:56:54.525Z,0
2019-02-25T03:57:54.267Z,0
2019-02-25T03:58:54.249Z,0
2019-02-25T03:59:53.954Z,0
2019-02-25T04:00:53.700Z,0
2019-02-25T04:01:54.433Z,0
2019-02-25T04:02:54.270Z,0
2019-02-25T04:03:54.126Z,0
2019-02-25T04:04:53.594Z,0
2019-02-25T04:05:53.838Z,0
2019-02-25T04:06:54.326Z,0
2019-02-25T04:07:54.321Z,0
2019-02-25T04:08:53.774Z,0
2019-02-25T04:09:54.031Z,0
2019-02-25T04:10:53.825Z,0
2019-02-25T04:11:53.992Z,0
2019-02-25T04:12:53.730Z,0
2019-02-25T04:13:53.933Z,0
2019-02-25T04:14:53.663Z,0
2019-02-25T04:15:53.884Z,0
2019-02-25T04:16:53.909Z,0
2019-02-25T04:17:53.658Z,0
2019-02-25T04:18:53.847Z,0
2019-02-25T04:19:53.841Z,0
2019-02-25T04:20:54.350Z,0
2019-02-25T04:21:54.043Z,0
2019-02-25T04:22:53.546Z,0
2019-02-25T04:23:53.732Z,0
2019-02-25T04:24:53.697Z,0
2019-02-25T04:25:53.670Z,0
2019-02-25T04:26:55.580Z,0
2019-02-25T04:27:53.377Z,0
2019-02-25T04:28:53.373Z,0
2019-02-25T04:29:53.700Z,0
2019-02-25T04:30:53.568Z,0
2019-02-25T04:31:53.304Z,0
2019-02-25T04:32:53.302Z,0
2019-02-25T04:33:53.247Z,0
2019-02-25T04:34:53.263Z,0
2019-02-25T04:35:53.231Z,0
2019-02-25T04:36:53.487Z,0
2019-02-25T04:37:53.699Z,0
2019-02-25T04:38:53.666Z,0
2019-02-25T04:39:53.636Z,0
2019-02-25T04:40:53.365Z,0
2019-02-25T04:41:53.099Z,0
2019-02-25T04:42:53.331Z,0
2019-02-25T04:43:53.289Z,0
2019-02-25T04:44:53.798Z,0
2019-02-25T04:45:53.299Z,0
2019-02-25T04:46:53.516Z,0
2019-02-25T04:47:53.467Z,0
2019-02-25T04:48:52.688Z,0
2019-02-25T04:49:53.186Z,0
2019-02-25T04:50:53.422Z,0
2019-02-25T04:51:52.893Z,0
2019-02-25T04:52:53.115Z,0
2019-02-25T04:53:53.103Z,0
2019-02-25T04:54:52.832Z,0
2019-02-25T04:55:53.445Z,0
2019-02-25T04:56:53.027Z,0
2019-02-25T04:57:53.002Z,0
2019-02-25T04:58:53.255Z,0
2019-02-25T04:59:52.963Z,0
2019-02-25T05:00:52.469Z,0
2019-02-25T05:01:52.827Z,0
2019-02-25T05:02:53.169Z,0
2019-02-25T05:03:52.903Z,0
2019-02-25T05:04:52.903Z,0
2019-02-25T05:05:53.109Z,0
2019-02-25T05:06:53.078Z,0
2019-02-25T05:07:52.803Z,0
2019-02-25T05:08:52.556Z,0
2019-02-25T05:09:52.755Z,0
2019-02-25T05:10:52.722Z,0
2019-02-25T05:11:52.721Z,0
2019-02-25T05:12:52.435Z,0
2019-02-25T05:13:52.993Z,0
2019-02-25T05:14:52.902Z,0
2019-02-25T05:15:52.661Z,0
2019-02-25T05:16:52.603Z,0
2019-02-25T05:17:52.613Z,0
2019-02-25T05:18:52.586Z,0
2019-02-25T05:19:52.299Z,0
2019-02-25T05:20:52.527Z,0
2019-02-25T05:21:52.496Z,0
2019-02-25T05:22:51.974Z,0
2019-02-25T05:23:52.208Z,0
2019-02-25T05:24:52.181Z,0
2019-02-25T05:25:52.694Z,0
2019-02-25T05:26:52.436Z,0
2019-02-25T05:27:52.394Z,0
2019-02-25T05:28:52.612Z,0
2019-02-25T05:29:52.331Z,0
2019-02-25T05:30:52.570Z,0
2019-02-25T05:31:52.045Z,0
2019-02-25T05:32:52.035Z,0
2019-02-25T05:33:52.085Z,0
2019-02-25T05:34:52.372Z,0
2019-02-25T05:35:51.976Z,0
2019-02-25T05:36:52.181Z,0
2019-02-25T05:37:52.158Z,0
2019-02-25T05:38:52.136Z,0
2019-02-25T05:39:51.865Z,0
2019-02-25T05:40:52.104Z,0
2019-02-25T05:41:51.831Z,0
2019-02-25T05:42:52.199Z,0
2019-02-25T05:43:51.771Z,0
2019-02-25T05:44:51.771Z,0
2019-02-25T05:45:52.040Z,0
2019-02-25T05:46:51.987Z,0
2019-02-25T05:47:52.483Z,0
2019-02-25T05:48:51.990Z,0
2019-02-25T05:49:52.056Z,0
2019-02-25T05:50:54.155Z,0
2019-02-25T05:51:51.865Z,0
2019-02-25T05:52:51.839Z,0
2019-02-25T05:53:51.595Z,0
2019-02-25T05:54:51.898Z,0
2019-02-25T05:55:52.045Z,0
2019-02-25T05:56:51.772Z,4
2019-02-25T05:57:51.987Z,4
2019-02-25T05:58:51.715Z,0
2019-02-25T05:59:51.692Z,4
2019-02-25T06:00:51.454Z,4
2019-02-25T06:01:51.702Z,4
2019-02-25T06:02:51.721Z,4
2019-02-25T06:03:51.107Z,4
2019-02-25T06:04:51.615Z,8
2019-02-25T06:05:51.572Z,8
2019-02-25T06:06:51.373Z,8
2019-02-25T06:07:51.887Z,12
2019-02-25T06:08:51.505Z,16
2019-02-25T06:09:51.523Z,20
2019-02-25T06:10:51.449Z,24
2019-02-25T06:11:51.216Z,24
2019-02-25T06:12:51.413Z,32
2019-02-25T06:13:51.392Z,40
2019-02-25T06:14:51.366Z,44
2019-02-25T06:15:53.879Z,48
2019-02-25T06:16:51.329Z,56
2019-02-25T06:17:51.631Z,60
2019-02-25T06:18:51.296Z,72
2019-02-25T06:19:51.264Z,84
2019-02-25T06:20:51.273Z,92
2019-02-25T06:21:51.224Z,100
2019-02-25T06:22:51.354Z,112
2019-02-25T06:23:51.211Z,128
2019-02-25T06:24:51.168Z,136
2019-02-25T06:25:51.209Z,152
2019-02-25T06:26:51.146Z,168
2019-02-25T06:27:51.468Z,188
2019-02-25T06:28:50.834Z,204
2019-02-25T06:29:50.816Z,224
2019-02-25T06:30:50.778Z,248
2019-02-25T06:31:51.026Z,272
2019-02-25T06:32:51.003Z,292
2019-02-25T06:33:52.465Z,316
2019-02-25T06:34:51.211Z,344
2019-02-25T06:35:50.952Z,368
2019-02-25T06:36:50.918Z,392
2019-02-25T06:37:51.169Z,420
2019-02-25T06:38:51.141Z,444
2019-02-25T06:39:51.099Z,468
2019-02-25T06:40:51.082Z,496
2019-02-25T06:41:50.563Z,520
2019-02-25T06:42:50.525Z,544
2019-02-25T06:43:50.761Z,572
2019-02-25T06:44:50.485Z,596
2019-02-25T06:45:50.473Z,620
2019-02-25T06:46:50.707Z,648
2019-02-25T06:47:50.918Z,668
2019-02-25T06:48:50.944Z,692
2019-02-25T06:49:50.622Z,716
2019-02-25T06:50:50.861Z,736
2019-02-25T06:51:50.606Z,760
2019-02-25T06:52:50.341Z,784
2019-02-25T06:53:50.289Z,804
2019-02-25T06:54:50.107Z,828
2019-02-25T06:55:50.251Z,852
2019-02-25T06:56:50.501Z,876
2019-02-25T06:57:50.498Z,900
2019-02-25T06:58:50.225Z,924
2019-02-25T06:59:50.170Z,944
2019-02-25T07:00:50.663Z,968
2019-02-25T07:01:50.618Z,992
2019-02-25T07:02:50.102Z,1008
2019-02-25T07:03:50.971Z,1028
2019-02-25T07:04:50.566Z,1044
2019-02-25T07:05:49.792Z,1060
2019-02-25T07:06:50.544Z,1080
2019-02-25T07:07:49.731Z,1100
2019-02-25T07:08:49.975Z,1120
2019-02-25T07:09:50.459Z,1136
2019-02-25T07:10:50.439Z,1156
2019-02-25T07:11:49.905Z,1176
2019-02-25T07:12:49.891Z,1192
2019-02-25T07:13:49.866Z,1208
2019-02-25T07:14:52.024Z,1228
2019-02-25T07:15:49.841Z,1244
2019-02-25T07:16:50.099Z,1264
2019-02-25T07:17:50.072Z,1280
2019-02-25T07:18:49.755Z,1300
2019-02-25T07:19:50.245Z,1316
2019-02-25T07:20:49.974Z,1332
2019-02-25T07:21:49.943Z,1348
2019-02-25T07:22:49.920Z,1368
2019-02-25T07:23:50.159Z,1384
2019-02-25T07:24:57.679Z,1404
2019-02-25T07:25:50.111Z,1412
2019-02-25T07:26:50.095Z,1432
2019-02-25T07:27:49.835Z,1448
2019-02-25T07:28:49.539Z,1468
2019-02-25T07:29:49.519Z,1492
2019-02-25T07:30:49.779Z,1516
2019-02-25T07:31:49.999Z,1536
2019-02-25T07:32:49.769Z,1544
2019-02-25T07:33:49.708Z,1564
2019-02-25T07:34:49.453Z,1592
2019-02-25T07:35:49.954Z,1616
2019-02-25T07:36:49.893Z,1644
2019-02-25T07:37:51.611Z,1664
2019-02-25T07:38:49.592Z,1684
2019-02-25T07:39:49.817Z,1708
2019-02-25T07:40:49.798Z,1732
2019-02-25T07:41:49.819Z,1756
2019-02-25T07:42:49.529Z,1784
2019-02-25T07:43:49.734Z,1800
2019-02-25T07:44:49.726Z,1824
2019-02-25T07:45:49.456Z,1844
2019-02-25T07:46:49.685Z,1868
2019-02-25T07:47:49.598Z,1892
2019-02-25T07:48:49.718Z,1912
2019-02-25T07:49:49.713Z,1932
2019-02-25T07:50:54.154Z,1948
2019-02-25T07:51:48.814Z,1964
2019-02-25T07:52:49.315Z,1976
2019-02-25T07:53:49.309Z,1992
2019-02-25T07:54:49.271Z,2004
2019-02-25T07:55:49.234Z,2020
2019-02-25T07:56:49.222Z,2028
2019-02-25T07:57:49.202Z,2044
2019-02-25T07:58:49.191Z,2056
2019-02-25T07:59:49.157Z,2068
2019-02-25T08:00:49.137Z,2076
2019-02-25T08:01:49.150Z,2088
2019-02-25T08:02:49.347Z,2100
2019-02-25T08:03:49.357Z,2108
2019-02-25T08:04:49.067Z,2124
2019-02-25T08:05:49.294Z,2144
2019-02-25T08:06:48.760Z,2164
2019-02-25T08:07:48.999Z,2184
2019-02-25T08:08:49.222Z,2208
2019-02-25T08:09:50.482Z,2236
2019-02-25T08:10:49.198Z,2276
2019-02-25T08:11:48.653Z,2312
2019-02-25T08:12:48.640Z,2380
2019-02-25T08:13:48.915Z,2460
2019-02-25T08:14:48.849Z,2516
2019-02-25T08:15:48.841Z,2556
2019-02-25T08:16:48.831Z,2596
2019-02-25T08:17:48.790Z,2632
2019-02-25T08:18:48.767Z,2680
2019-02-25T08:19:48.813Z,2736
2019-02-25T08:20:48.486Z,2772
2019-02-25T08:21:48.716Z,2812
2019-02-25T08:22:48.697Z,2868
2019-02-25T08:23:48.169Z,2928
2019-02-25T08:24:48.920Z,3040
2019-02-25T08:25:48.882Z,3172
2019-02-25T08:26:48.655Z,5272
2019-02-25T08:27:48.866Z,9988
2019-02-25T08:28:48.573Z,10724
2019-02-25T08:29:48.559Z,7800
2019-02-25T08:30:48.534Z,5364
2019-02-25T08:31:48.814Z,6892
2019-02-25T08:32:48.746Z,10044
2019-02-25T08:33:48.551Z,10980
2019-02-25T08:34:48.473Z,10920
2019-02-25T08:35:48.439Z,11024
2019-02-25T08:36:48.692Z,7992
2019-02-25T08:37:48.428Z,4652
2019-02-25T08:38:48.656Z,4104
2019-02-25T08:39:48.374Z,4664
2019-02-25T08:40:48.104Z,8028
2019-02-25T08:41:48.592Z,11604
2019-02-25T08:42:48.347Z,12376
2019-02-25T08:43:48.303Z,15392
2019-02-25T08:44:48.549Z,16064
2019-02-25T08:45:48.279Z,16512
2019-02-25T08:46:48.000Z,17824
2019-02-25T08:47:48.238Z,13760
2019-02-25T08:48:48.025Z,11136
2019-02-25T08:49:48.507Z,11868
2019-02-25T08:50:48.202Z,11928
2019-02-25T08:51:48.194Z,13184
2019-02-25T08:52:48.419Z,17440
2019-02-25T08:53:47.965Z,21248
2019-02-25T08:54:48.146Z,23456
2019-02-25T08:55:47.872Z,21664
2019-02-25T08:56:48.126Z,18560
2019-02-25T08:57:47.861Z,16224
2019-02-25T08:58:49.792Z,14624
2019-02-25T08:59:48.361Z,16448
2019-02-25T09:00:47.810Z,19168
2019-02-25T09:01:47.815Z,22048
2019-02-25T09:02:48.042Z,19776
2019-02-25T09:03:47.550Z,17568
2019-02-25T09:04:49.254Z,13788
2019-02-25T09:05:47.759Z,9176
2019-02-25T09:06:48.273Z,10172
2019-02-25T09:07:50.036Z,8612
2019-02-25T09:08:48.253Z,16512
2019-02-25T09:09:48.235Z,19456
2019-02-25T09:10:47.959Z,16544
2019-02-25T09:11:47.965Z,17248
2019-02-25T09:12:48.868Z,20672
2019-02-25T09:13:48.224Z,24032
2019-02-25T09:14:47.921Z,26272
2019-02-25T09:15:47.956Z,27552
2019-02-25T09:16:48.149Z,18496
2019-02-25T09:17:47.893Z,16576
2019-02-25T09:18:47.930Z,21760
2019-02-25T09:19:47.382Z,20640
2019-02-25T09:20:48.114Z,19936
2019-02-25T09:21:48.103Z,19136
2019-02-25T09:22:47.863Z,15456
2019-02-25T09:23:47.904Z,15648
2019-02-25T09:24:47.929Z,18688
2019-02-25T09:25:47.823Z,10908
2019-02-25T09:26:47.809Z,4948
2019-02-25T09:27:47.807Z,4448
2019-02-25T09:28:47.818Z,6064
2019-02-25T09:29:49.508Z,9308
2019-02-25T09:30:47.778Z,9728
2019-02-25T09:31:47.838Z,9596
2019-02-25T09:32:48.029Z,10452
2019-02-25T09:33:47.780Z,13896
2019-02-25T09:34:49.284Z,15032
2019-02-25T09:35:47.251Z,13936
2019-02-25T09:36:47.476Z,12720
2019-02-25T09:37:47.771Z,10204
2019-02-25T09:38:47.724Z,7560
2019-02-25T09:39:47.723Z,7964
2019-02-25T09:40:48.110Z,6656
2019-02-25T09:41:47.460Z,5688
2019-02-25T09:42:47.693Z,6788
2019-02-25T09:43:47.947Z,15616
2019-02-25T09:44:47.682Z,24096
2019-02-25T09:45:47.669Z,16576
2019-02-25T09:46:47.644Z,6560
2019-02-25T09:47:48.107Z,9492
2019-02-25T09:48:47.888Z,18912
2019-02-25T09:49:47.890Z,18624
2019-02-25T09:50:47.864Z,21440
2019-02-25T09:51:47.595Z,24832
2019-02-25T09:52:47.387Z,23360
2019-02-25T09:53:47.634Z,19840
2019-02-25T09:54:47.841Z,20256
2019-02-25T09:55:47.342Z,27552
2019-02-25T09:56:47.583Z,33472
2019-02-25T09:57:47.563Z,27104
2019-02-25T09:58:47.555Z,21920
2019-02-25T09:59:47.819Z,18816
2019-02-25T10:00:48.413Z,8736
2019-02-25T10:01:47.533Z,6132
2019-02-25T10:02:47.266Z,6180
2019-02-25T10:03:47.512Z,5084
2019-02-25T10:04:47.887Z,9656
2019-02-25T10:05:48.810Z,25312
2019-02-25T10:06:47.482Z,22752
2019-02-25T10:07:47.730Z,17280
2019-02-25T10:08:48.753Z,15236
2019-02-25T10:09:47.458Z,10376
2019-02-25T10:10:47.240Z,7628
2019-02-25T10:11:48.729Z,4460
2019-02-25T10:12:47.196Z,8596
2019-02-25T10:13:47.687Z,12832
2019-02-25T10:14:49.381Z,12060
2019-02-25T10:15:47.436Z,16736
2019-02-25T10:16:47.150Z,22624
2019-02-25T10:17:47.402Z,24000
2019-02-25T10:18:47.398Z,22272
2019-02-25T10:19:47.435Z,25216
2019-02-25T10:20:47.384Z,29024
2019-02-25T10:21:47.119Z,29344
2019-02-25T10:22:47.426Z,18944
2019-02-25T10:23:47.814Z,12088
2019-02-25T10:24:47.364Z,12416
2019-02-25T10:25:46.852Z,11980
2019-02-25T10:26:47.327Z,17056
2019-02-25T10:27:47.067Z,22432
2019-02-25T10:28:47.314Z,22400
2019-02-25T10:29:47.601Z,19488
2019-02-25T10:30:55.276Z,12704
2019-02-25T10:31:49.407Z,9280
2019-02-25T10:32:47.563Z,9740
2019-02-25T10:33:47.319Z,14168
2019-02-25T10:34:47.295Z,19008
2019-02-25T10:35:47.275Z,15960
2019-02-25T10:36:52.561Z,10708
2019-02-25T10:37:48.787Z,13800
2019-02-25T10:38:47.241Z,19488
2019-02-25T10:39:53.847Z,16208
2019-02-25T10:40:52.182Z,11512
2019-02-25T10:41:47.210Z,8672
2019-02-25T10:42:47.210Z,9880
2019-02-25T10:43:47.242Z,12580
2019-02-25T10:44:47.280Z,14496
2019-02-25T10:45:50.284Z,23104
2019-02-25T10:46:51.301Z,26976
2019-02-25T10:47:57.721Z,24256
2019-02-25T10:48:47.818Z,31520
2019-02-25T10:49:46.889Z,38080
2019-02-25T10:50:55.695Z,35616
2019-02-25T10:51:50.131Z,31072
2019-02-25T10:52:51.817Z,28704
2019-02-25T10:53:53.494Z,18112
2019-02-25T10:54:47.859Z,19808
2019-02-25T10:55:55.487Z,28768
2019-02-25T10:56:47.706Z,29376
2019-02-25T10:57:47.106Z,22048
2019-02-25T10:58:47.343Z,15768
2019-02-25T10:59:48.248Z,12276
2019-02-25T11:00:50.843Z,11968
2019-02-25T11:01:52.117Z,13700
2019-02-25T11:02:58.248Z,19904
2019-02-25T11:03:51.945Z,28512
2019-02-25T11:04:47.353Z,39328
2019-02-25T11:05:47.300Z,44832
2019-02-25T11:06:46.852Z,38176
2019-02-25T11:07:48.979Z,32832
2019-02-25T11:08:50.326Z,31104
2019-02-25T11:09:52.845Z,29792
2019-02-25T11:10:52.818Z,36032
2019-02-25T11:11:48.482Z,43200
2019-02-25T11:12:47.781Z,35872
2019-02-25T11:13:47.057Z,37216
2019-02-25T11:14:48.951Z,36992
2019-02-25T11:15:52.169Z,24832
2019-02-25T11:16:52.986Z,19328
2019-02-25T11:17:50.020Z,20096
2019-02-25T11:18:47.644Z,21984
2019-02-25T11:19:46.957Z,29984
2019-02-25T11:20:47.230Z,34688
2019-02-25T11:21:48.909Z,29856
2019-02-25T11:22:52.511Z,17376
2019-02-25T11:23:53.315Z,7628
2019-02-25T11:24:49.299Z,15032
2019-02-25T11:25:46.931Z,19648
2019-02-25T11:26:47.218Z,21184
2019-02-25T11:27:46.824Z,27264
2019-02-25T11:28:50.224Z,34976
2019-02-25T11:29:51.198Z,34976
2019-02-25T11:30:53.553Z,36192
2019-02-25T11:31:49.937Z,34976
2019-02-25T11:32:48.624Z,36768
2019-02-25T11:33:46.915Z,35648
2019-02-25T11:34:46.977Z,30688
2019-02-25T11:35:50.808Z,25984
2019-02-25T11:36:48.123Z,26080
2019-02-25T11:37:46.943Z,22560
2019-02-25T11:38:47.166Z,20608
2019-02-25T11:39:46.891Z,21856
2019-02-25T11:40:47.129Z,30848
2019-02-25T11:41:47.868Z,35168
2019-02-25T11:42:47.130Z,32384
2019-02-25T11:43:53.513Z,27360
2019-02-25T11:44:46.863Z,26432
2019-02-25T11:45:47.125Z,25696
2019-02-25T11:46:46.868Z,24352
2019-02-25T11:47:47.306Z,30272
2019-02-25T11:48:46.844Z,35552
2019-02-25T11:49:46.855Z,36096
2019-02-25T11:50:47.051Z,34112
2019-02-25T11:51:47.151Z,33312
2019-02-25T11:52:46.634Z,31456
2019-02-25T11:53:46.866Z,30688
2019-02-25T11:54:46.843Z,30112
2019-02-25T11:55:46.573Z,32064
2019-02-25T11:56:46.859Z,36416
2019-02-25T11:57:46.933Z,41376
2019-02-25T11:58:46.307Z,37984
2019-02-25T11:59:46.880Z,40896
2019-02-25T12:00:47.036Z,45152
2019-02-25T12:01:46.565Z,45504
2019-02-25T12:02:47.111Z,36896
2019-02-25T12:03:46.827Z,33856
2019-02-25T12:04:48.383Z,47840
2019-02-25T12:05:46.815Z,51264
2019-02-25T12:06:46.808Z,39936
2019-02-25T12:07:46.562Z,36896
2019-02-25T12:08:46.554Z,30464
2019-02-25T12:09:46.559Z,23328
2019-02-25T12:10:46.549Z,24800
2019-02-25T12:11:46.833Z,31776
2019-02-25T12:12:46.813Z,41440
2019-02-25T12:13:46.802Z,49760
2019-02-25T12:14:46.821Z,52576
2019-02-25T12:15:46.820Z,48736
2019-02-25T12:16:46.809Z,48128
2019-02-25T12:17:46.809Z,38592
2019-02-25T12:18:46.838Z,36736
2019-02-25T12:19:47.083Z,44800
2019-02-25T12:20:46.562Z,46304
2019-02-25T12:21:47.229Z,45344
2019-02-25T12:22:46.807Z,44160
2019-02-25T12:23:47.075Z,44224
2019-02-25T12:24:46.566Z,44000
2019-02-25T12:25:46.801Z,45152
2019-02-25T12:26:47.061Z,49344
2019-02-25T12:27:47.218Z,53984
2019-02-25T12:28:46.841Z,53728
2019-02-25T12:29:46.861Z,53984
2019-02-25T12:30:46.812Z,53760
2019-02-25T12:31:46.912Z,53856
2019-02-25T12:32:47.069Z,54528
2019-02-25T12:33:46.814Z,54528
2019-02-25T12:34:46.880Z,53632
2019-02-25T12:35:46.602Z,51872
2019-02-25T12:36:46.840Z,49472
2019-02-25T12:37:46.851Z,48896
2019-02-25T12:38:46.826Z,47456
2019-02-25T12:39:46.579Z,47040
2019-02-25T12:40:47.081Z,48960
2019-02-25T12:41:46.844Z,51136
2019-02-25T12:42:46.609Z,51616
2019-02-25T12:43:46.839Z,51584
2019-02-25T12:44:46.852Z,51040
2019-02-25T12:45:47.106Z,50048
2019-02-25T12:46:46.591Z,47136
2019-02-25T12:47:47.114Z,45152
2019-02-25T12:48:46.855Z,45856
2019-02-25T12:49:47.135Z,43968
2019-02-25T12:50:47.112Z,45280
2019-02-25T12:51:47.160Z,50432
2019-02-25T12:52:46.877Z,54944
2019-02-25T12:53:47.127Z,57312
2019-02-25T12:54:46.896Z,56064
2019-02-25T12:55:47.137Z,54944
2019-02-25T12:56:47.154Z,50784
2019-02-25T12:57:46.884Z,48256
2019-02-25T12:58:47.154Z,50720
2019-02-25T12:59:46.929Z,52736
2019-02-25T13:00:47.260Z,54848
2019-02-25T13:01:46.649Z,55712
2019-02-25T13:02:46.655Z,51456
2019-02-25T13:03:46.919Z,44672
2019-02-25T13:04:47.164Z,38240
2019-02-25T13:05:46.943Z,34816
2019-02-25T13:06:46.937Z,37088
2019-02-25T13:07:47.177Z,42496
2019-02-25T13:08:46.949Z,48480
2019-02-25T13:09:47.211Z,49536
2019-02-25T13:10:47.196Z,47968
2019-02-25T13:11:47.258Z,45216
2019-02-25T13:12:46.986Z,44640
2019-02-25T13:13:46.949Z,45856
2019-02-25T13:14:46.960Z,50048
2019-02-25T13:15:46.948Z,55552
2019-02-25T13:16:47.211Z,58112
2019-02-25T13:17:46.977Z,57984
2019-02-25T13:18:46.963Z,55104
2019-02-25T13:19:46.716Z,49376
2019-02-25T13:20:46.732Z,45152
2019-02-25T13:21:46.988Z,43808
2019-02-25T13:22:46.988Z,45792
2019-02-25T13:23:47.040Z,49536
2019-02-25T13:24:46.503Z,52768
2019-02-25T13:25:47.001Z,54688
2019-02-25T13:26:46.560Z,56032
2019-02-25T13:27:47.317Z,54272
2019-02-25T13:28:47.095Z,50528
2019-02-25T13:29:46.802Z,47424
2019-02-25T13:30:47.104Z,45824
2019-02-25T13:31:47.324Z,46784
2019-02-25T13:32:47.063Z,49536
2019-02-25T13:33:47.324Z,50112
2019-02-25T13:34:47.032Z,46560
2019-02-25T13:35:47.227Z,41376
2019-02-25T13:36:47.099Z,38176
2019-02-25T13:37:46.873Z,38720
2019-02-25T13:38:46.868Z,41760
2019-02-25T13:39:47.100Z,44160
2019-02-25T13:40:47.112Z,45792
2019-02-25T13:41:47.116Z,43808
2019-02-25T13:42:47.183Z,40352
2019-02-25T13:43:46.609Z,37760
2019-02-25T13:44:47.477Z,37920
2019-02-25T13:45:47.186Z,39776
2019-02-25T13:46:47.413Z,42816
2019-02-25T13:47:47.391Z,46880